UBJ weather

Yamaguchi Ube Airport
Ube, Yamaguchi Prefecture, Japan

Public forecast

Using degrees Celsius for public forecast. Weather courtesy of forecast.io.

Current aviation weather report (METAR) for Yamaguchi Ube Airport

Retrieved 2019/10/23 09:00 UTC (17 minutes ago):

RJDC 230900Z 02003KT 9999 FEW025 BKN060 BKN180 21/15 Q1015

Closest aviation forecast (TAF) to Yamaguchi Ube Airport

Closest forecast is Kitakyūshū Airport, 13.2 nm (24.4 km) WSW. Retrieved 2019/10/23 06:30 UTC (3 hours ago):

TAF TAF RJFR 230506Z 2306/2412 10008KT 9999 FEW015 SCT045 BECMG 2307/2309 05008KT BECMG 2314/2316 12010KT TEMPO 2315/2318 4000 -SHRA BR BECMG 2318/2321 02018KT TEMPO 2318/2403 3000 SHRA BR FEW003 BKN008 BKN010